Newvida — V7KQ7 — position and weather

sailwx.info

Track history (hours):
 
Tides and Currents Weather Stations Pressure Air Temp Water Temp Dewpoint Dewpoint Depression Visibility Wind Speed Wind Dir Waves Ship Positions

Newvida

Last reported at 2016-Dec-07 15:33 UTC. Time now 2016-Dec-07 16:19 UTC.
Position N 17°01' W 061°46'.

Length 56 m; draft 2.4 m.

Type: Pleasure craft. MMSI: 538080049.

Date/timePositionNaut miles runAvg speedWind from/ knotsBaromVisibWave heightAir tempDewpointWater temp
2016-Dec-07 15:33N 17°01' W 061°46'0 0.0
2016-Dec-07 14:33N 17°01' W 061°46'0 0.0
2016-Dec-07 13:33N 17°01' W 061°46'0 0.0
2016-Dec-07 12:33N 17°01' W 061°46'0 0.0
2016-Dec-07 11:33N 17°01' W 061°46'0 0.0
2016-Dec-07 10:33N 17°01' W 061°46'0 0.0
2016-Dec-07 09:33N 17°01' W 061°46'0 0.0
2016-Dec-07 08:33N 17°01' W 061°46'0 0.0
2016-Dec-07 07:33N 17°01' W 061°46'0 0.0
2016-Dec-07 06:33N 17°01' W 061°46'0 0.0
2016-Dec-07 05:33N 17°01' W 061°46'0 0.0
2016-Dec-07 04:33N 17°01' W 061°46'0 0.0
2016-Dec-07 03:33N 17°01' W 061°46'0 0.0
2016-Dec-07 02:33N 17°01' W 061°46'0 0.0
2016-Dec-07 01:33N 17°01' W 061°46'0 0.0
2016-Dec-07 00:33N 17°01' W 061°46'0 0.0
2016-Dec-06 23:33N 17°01' W 061°46'0 0.0
2016-Dec-06 22:33N 17°01' W 061°46'0 0.0
2016-Dec-06 21:33N 17°01' W 061°46'0 0.0
2016-Dec-06 20:33N 17°01' W 061°46'0 0.0
2016-Dec-06 18:33N 17°01' W 061°46'0 0.0
2016-Dec-06 17:30N 17°01' W 061°46'0 0.0
2016-Dec-06 16:33N 17°01' W 061°46'0 0.0
2016-Dec-06 15:33N 17°01' W 061°46'0 0.0
2016-Dec-06 14:33N 17°01' W 061°46'0 0.0
2016-Dec-06 13:33N 17°01' W 061°46'0 0.0
2016-Dec-06 12:33N 17°01' W 061°46'0 0.0
2016-Dec-06 11:33N 17°01' W 061°46'0 0.0
2016-Dec-06 10:33N 17°01' W 061°46'0 0.0
2016-Dec-06 09:33N 17°01' W 061°46'0 0.0
2016-Dec-06 08:33N 17°01' W 061°46'0 0.0
2016-Dec-06 07:33N 17°01' W 061°46'0 0.0
2016-Dec-06 06:33N 17°01' W 061°46'0 0.0
2016-Dec-06 05:33N 17°01' W 061°46'0 0.0
2016-Dec-06 04:33N 17°01' W 061°46'0 0.0
2016-Dec-06 03:33N 17°01' W 061°46'0 0.0
2016-Dec-06 02:33N 17°01' W 061°46'0 0.0
2016-Dec-06 01:33N 17°01' W 061°46'1 0.6
2016-Dec-06 00:34N 17°01' W 061°47'3 2.9
2016-Dec-05 23:33N 16°59' W 061°49'1010.3
2016-Dec-05 22:33N 17°02' W 061°60'1110.9
2016-Dec-05 21:33N 17°09' W 062°09'1110.8
2016-Dec-05 20:33N 17°16' W 062°17'5810.9
2016-Dec-05 15:17N 17°56' W 063°01'810.4
2016-Dec-05 14:32N 18°01' W 063°07'1 1.0
2016-Dec-05 13:32N 18°02' W 063°06'0 0.0
2016-Dec-05 12:30N 18°02' W 063°06'0 0.0
2016-Dec-05 11:32N 18°02' W 063°06'0 0.0
2016-Dec-05 10:32N 18°02' W 063°06'0 0.0
2016-Dec-05 09:32N 18°02' W 063°06'0 0.0
2016-Dec-05 08:23N 18°02' W 063°06'0 0.0
2016-Dec-05 07:11N 18°02' W 063°06'0 0.0
2016-Dec-05 06:26N 18°02' W 063°06'0 0.0
2016-Dec-05 05:26N 18°02' W 063°06'0 0.0
2016-Dec-05 04:29N 18°02' W 063°06'0 0.0
2016-Dec-05 03:29N 18°02' W 063°06'5 4.7
2016-Dec-05 02:29N 18°01' W 063°11'1010.8
2016-Dec-05 01:31N 18°03' W 063°22'  
Track history (hours):
 
Tides and Currents Weather Stations Pressure Air Temp Water Temp Dewpoint Dewpoint Depression Visibility Wind Speed Wind Dir Waves Ship Positions

Newvida

Last reported at 2016-Dec-07 15:33 UTC. Time now 2016-Dec-07 16:19 UTC.
Position N 17°01' W 061°46'.

Length 56 m; draft 2.4 m.

Type: Pleasure craft. MMSI: 538080049.

Date/timePositionNaut miles runAvg speedWind from/ knotsBaromVisibWave heightAir tempDewpointWater temp
2016-Dec-07 15:33N 17°01' W 061°46'0 0.0
2016-Dec-07 14:33N 17°01' W 061°46'0 0.0
2016-Dec-07 13:33N 17°01' W 061°46'0 0.0
2016-Dec-07 12:33N 17°01' W 061°46'0 0.0
2016-Dec-07 11:33N 17°01' W 061°46'0 0.0
2016-Dec-07 10:33N 17°01' W 061°46'0 0.0
2016-Dec-07 09:33N 17°01' W 061°46'0 0.0
2016-Dec-07 08:33N 17°01' W 061°46'0 0.0
2016-Dec-07 07:33N 17°01' W 061°46'0 0.0
2016-Dec-07 06:33N 17°01' W 061°46'0 0.0
2016-Dec-07 05:33N 17°01' W 061°46'0 0.0
2016-Dec-07 04:33N 17°01' W 061°46'0 0.0
2016-Dec-07 03:33N 17°01' W 061°46'0 0.0
2016-Dec-07 02:33N 17°01' W 061°46'0 0.0
2016-Dec-07 01:33N 17°01' W 061°46'0 0.0
2016-Dec-07 00:33N 17°01' W 061°46'0 0.0
2016-Dec-06 23:33N 17°01' W 061°46'0 0.0
2016-Dec-06 22:33N 17°01' W 061°46'0 0.0
2016-Dec-06 21:33N 17°01' W 061°46'0 0.0
2016-Dec-06 20:33N 17°01' W 061°46'0 0.0
2016-Dec-06 18:33N 17°01' W 061°46'0 0.0
2016-Dec-06 17:30N 17°01' W 061°46'0 0.0
2016-Dec-06 16:33N 17°01' W 061°46'0 0.0
2016-Dec-06 15:33N 17°01' W 061°46'0 0.0
2016-Dec-06 14:33N 17°01' W 061°46'0 0.0
2016-Dec-06 13:33N 17°01' W 061°46'0 0.0
2016-Dec-06 12:33N 17°01' W 061°46'0 0.0
2016-Dec-06 11:33N 17°01' W 061°46'0 0.0
2016-Dec-06 10:33N 17°01' W 061°46'0 0.0
2016-Dec-06 09:33N 17°01' W 061°46'0 0.0
2016-Dec-06 08:33N 17°01' W 061°46'0 0.0
2016-Dec-06 07:33N 17°01' W 061°46'0 0.0
2016-Dec-06 06:33N 17°01' W 061°46'0 0.0
2016-Dec-06 05:33N 17°01' W 061°46'0 0.0
2016-Dec-06 04:33N 17°01' W 061°46'0 0.0
2016-Dec-06 03:33N 17°01' W 061°46'0 0.0
2016-Dec-06 02:33N 17°01' W 061°46'0 0.0
2016-Dec-06 01:33N 17°01' W 061°46'1 0.6
2016-Dec-06 00:34N 17°01' W 061°47'3 2.9
2016-Dec-05 23:33N 16°59' W 061°49'1010.3
2016-Dec-05 22:33N 17°02' W 061°60'1110.9
2016-Dec-05 21:33N 17°09' W 062°09'1110.8
2016-Dec-05 20:33N 17°16' W 062°17'5810.9
2016-Dec-05 15:17N 17°56' W 063°01'810.4
2016-Dec-05 14:32N 18°01' W 063°07'1 1.0
2016-Dec-05 13:32N 18°02' W 063°06'0 0.0
2016-Dec-05 12:30N 18°02' W 063°06'0 0.0
2016-Dec-05 11:32N 18°02' W 063°06'0 0.0
2016-Dec-05 10:32N 18°02' W 063°06'0 0.0
2016-Dec-05 09:32N 18°02' W 063°06'0 0.0
2016-Dec-05 08:23N 18°02' W 063°06'0 0.0
2016-Dec-05 07:11N 18°02' W 063°06'0 0.0
2016-Dec-05 06:26N 18°02' W 063°06'0 0.0
2016-Dec-05 05:26N 18°02' W 063°06'0 0.0
2016-Dec-05 04:29N 18°02' W 063°06'0 0.0
2016-Dec-05 03:29N 18°02' W 063°06'5 4.7
2016-Dec-05 02:29N 18°01' W 063°11'1010.8
2016-Dec-05 01:31N 18°03' W 063°22'  

Dump ship's entire track history